TLPL/UVF METAR and TAF weather

Enter ICAO airport designator
Station Type Date Time Source
TLPL METAR 2024/04/18 08:00 UTC NOAA

TLPL 180800Z 12011KT 9999 FEW024 27/23 Q1011 NOSIG


Station Type Date Time Source
TLPL Decoded METAR 2024/04/18 08:00 UTC NOAA

Hewanorra International Airport, Saint Lucia (TLPL) 13-45N 060-57W 10M
Apr 18, 2024 - 04:00 AM EDT / 2024.04.18 0800 UTC
Wind: from the ESE (120 degrees) at 13 MPH (11 KT):0
Visibility: greater than 7 mile(s):0
Sky conditions: mostly clear
Temperature: 80 F (27 C)
Dew Point: 73 F (23 C)
Relative Humidity: 78%
Pressure (altimeter): 29.85 in. Hg (1011 hPa)
ob: TLPL 180800Z 12011KT 9999 FEW024 27/23 Q1011 NOSIG
cycle: 8

Station Type Date Time Source
TLPL TAF 2024/04/18 18:33 UTC NOAA